sensor_id;sensor_type;location;lat;lon;timestamp;P1;durP1;ratioP1;P2;durP2;ratioP2
3757;SDS011;1894;51.038;13.692;2023-05-21T00:00:15;40.10;;;30.30;;
3757;SDS011;1894;51.038;13.692;2023-05-21T00:02:42;43.43;;;29.90;;
3757;SDS011;1894;51.038;13.692;2023-05-21T00:05:10;40.27;;;30.40;;
3757;SDS011;1894;51.038;13.692;2023-05-21T00:07:40;44.03;;;32.50;;
3757;SDS011;1894;51.038;13.692;2023-05-21T00:10:07;40.73;;;31.20;;
3757;SDS011;1894;51.038;13.692;2023-05-21T00:12:35;39.23;;;29.43;;
3757;SDS011;1894;51.038;13.692;2023-05-21T00:15:03;48.60;;;29.83;;
3757;SDS011;1894;51.038;13.692;2023-05-21T00:17:30;41.30;;;29.23;;
3757;SDS011;1894;51.038;13.692;2023-05-21T00:19:57;34.90;;;26.40;;
3757;SDS011;1894;51.038;13.692;2023-05-21T00:22:25;35.77;;;26.73;;
3757;SDS011;1894;51.038;13.692;2023-05-21T00:24:52;36.87;;;29.00;;
3757;SDS011;1894;51.038;13.692;2023-05-21T00:27:19;41.17;;;28.53;;
3757;SDS011;1894;51.038;13.692;2023-05-21T00:29:46;39.87;;;29.80;;
3757;SDS011;1894;51.038;13.692;2023-05-21T00:32:14;36.23;;;28.83;;
3757;SDS011;1894;51.038;13.692;2023-05-21T00:34:41;39.37;;;29.57;;
3757;SDS011;1894;51.038;13.692;2023-05-21T00:37:09;41.37;;;29.40;;
3757;SDS011;1894;51.038;13.692;2023-05-21T00:39:36;41.47;;;30.07;;
3757;SDS011;1894;51.038;13.692;2023-05-21T00:42:03;39.00;;;28.57;;
3757;SDS011;1894;51.038;13.692;2023-05-21T00:44:31;41.50;;;30.40;;
3757;SDS011;1894;51.038;13.692;2023-05-21T00:47:01;39.77;;;28.23;;
3757;SDS011;1894;51.038;13.692;2023-05-21T00:49:30;41.40;;;30.43;;
3757;SDS011;1894;51.038;13.692;2023-05-21T00:51:57;41.17;;;31.87;;
3757;SDS011;1894;51.038;13.692;2023-05-21T00:54:27;38.53;;;29.13;;
3757;SDS011;1894;51.038;13.692;2023-05-21T00:56:55;42.10;;;30.03;;
3757;SDS011;1894;51.038;13.692;2023-05-21T00:59:23;41.03;;;30.17;;
3757;SDS011;1894;51.038;13.692;2023-05-21T01:01:51;39.53;;;28.63;;
3757;SDS011;1894;51.038;13.692;2023-05-21T01:04:22;41.23;;;30.23;;
3757;SDS011;1894;51.038;13.692;2023-05-21T01:06:49;40.30;;;29.67;;
3757;SDS011;1894;51.038;13.692;2023-05-21T01:09:18;40.23;;;30.73;;
3757;SDS011;1894;51.038;13.692;2023-05-21T01:11:46;50.43;;;32.23;;
3757;SDS011;1894;51.038;13.692;2023-05-21T01:14:16;43.37;;;30.40;;
3757;SDS011;1894;51.038;13.692;2023-05-21T01:16:46;39.63;;;30.30;;
3757;SDS011;1894;51.038;13.692;2023-05-21T01:19:16;38.10;;;28.30;;
3757;SDS011;1894;51.038;13.692;2023-05-21T01:21:49;40.77;;;29.93;;
3757;SDS011;1894;51.038;13.692;2023-05-21T01:24:18;36.40;;;27.87;;
3757;SDS011;1894;51.038;13.692;2023-05-21T01:26:45;44.87;;;29.00;;
3757;SDS011;1894;51.038;13.692;2023-05-21T01:29:13;44.17;;;29.77;;
3757;SDS011;1894;51.038;13.692;2023-05-21T01:34:51;44.17;;;30.60;;
3757;SDS011;1894;51.038;13.692;2023-05-21T01:40:30;46.73;;;32.90;;
3757;SDS011;1894;51.038;13.692;2023-05-21T01:43:04;40.40;;;29.20;;
3757;SDS011;1894;51.038;13.692;2023-05-21T01:45:32;44.07;;;29.60;;
3757;SDS011;1894;51.038;13.692;2023-05-21T01:48:06;39.60;;;30.53;;
3757;SDS011;1894;51.038;13.692;2023-05-21T01:50:34;40.13;;;29.80;;
3757;SDS011;1894;51.038;13.692;2023-05-21T01:53:04;38.57;;;30.23;;
3757;SDS011;1894;51.038;13.692;2023-05-21T01:55:31;43.20;;;29.63;;
3757;SDS011;1894;51.038;13.692;2023-05-21T01:57:59;43.63;;;31.87;;
3757;SDS011;1894;51.038;13.692;2023-05-21T02:00:28;41.57;;;30.97;;
3757;SDS011;1894;51.038;13.692;2023-05-21T02:02:57;41.83;;;29.90;;
3757;SDS011;1894;51.038;13.692;2023-05-21T02:05:25;40.17;;;30.63;;
3757;SDS011;1894;51.038;13.692;2023-05-21T02:07:52;42.00;;;30.67;;
3757;SDS011;1894;51.038;13.692;2023-05-21T02:10:21;42.57;;;29.87;;
3757;SDS011;1894;51.038;13.692;2023-05-21T02:12:48;43.73;;;31.50;;
3757;SDS011;1894;51.038;13.692;2023-05-21T02:15:15;44.40;;;30.47;;
3757;SDS011;1894;51.038;13.692;2023-05-21T02:17:45;43.67;;;32.70;;
3757;SDS011;1894;51.038;13.692;2023-05-21T02:20:12;41.23;;;31.13;;
3757;SDS011;1894;51.038;13.692;2023-05-21T02:22:41;43.70;;;30.37;;
3757;SDS011;1894;51.038;13.692;2023-05-21T02:25:10;45.67;;;32.63;;
3757;SDS011;1894;51.038;13.692;2023-05-21T02:27:40;41.97;;;30.57;;
3757;SDS011;1894;51.038;13.692;2023-05-21T02:30:09;41.70;;;32.03;;
3757;SDS011;1894;51.038;13.692;2023-05-21T02:32:38;40.57;;;30.43;;
3757;SDS011;1894;51.038;13.692;2023-05-21T02:35:11;42.83;;;30.43;;
3757;SDS011;1894;51.038;13.692;2023-05-21T02:37:39;45.00;;;33.13;;
3757;SDS011;1894;51.038;13.692;2023-05-21T02:40:06;40.97;;;30.27;;
3757;SDS011;1894;51.038;13.692;2023-05-21T02:42:35;46.77;;;32.30;;
3757;SDS011;1894;51.038;13.692;2023-05-21T02:45:09;41.30;;;29.60;;
3757;SDS011;1894;51.038;13.692;2023-05-21T02:47:40;43.70;;;31.37;;
3757;SDS011;1894;51.038;13.692;2023-05-21T02:50:08;39.87;;;30.27;;
3757;SDS011;1894;51.038;13.692;2023-05-21T02:52:43;44.50;;;31.37;;
3757;SDS011;1894;51.038;13.692;2023-05-21T02:55:11;36.93;;;28.70;;
3757;SDS011;1894;51.038;13.692;2023-05-21T02:57:38;44.87;;;30.00;;
3757;SDS011;1894;51.038;13.692;2023-05-21T03:00:08;39.10;;;28.07;;
3757;SDS011;1894;51.038;13.692;2023-05-21T03:02:38;41.50;;;29.23;;
3757;SDS011;1894;51.038;13.692;2023-05-21T03:05:07;37.73;;;29.00;;
3757;SDS011;1894;51.038;13.692;2023-05-21T03:07:34;37.77;;;29.73;;
3757;SDS011;1894;51.038;13.692;2023-05-21T03:10:01;39.50;;;30.73;;
3757;SDS011;1894;51.038;13.692;2023-05-21T03:12:29;44.97;;;31.43;;
3757;SDS011;1894;51.038;13.692;2023-05-21T03:14:57;43.03;;;31.10;;
3757;SDS011;1894;51.038;13.692;2023-05-21T03:17:26;41.37;;;31.00;;
3757;SDS011;1894;51.038;13.692;2023-05-21T03:19:53;38.80;;;30.63;;
3757;SDS011;1894;51.038;13.692;2023-05-21T03:22:21;40.50;;;30.17;;
3757;SDS011;1894;51.038;13.692;2023-05-21T03:24:48;41.00;;;31.30;;
3757;SDS011;1894;51.038;13.692;2023-05-21T03:27:16;41.00;;;30.47;;
3757;SDS011;1894;51.038;13.692;2023-05-21T03:29:45;43.33;;;30.70;;
3757;SDS011;1894;51.038;13.692;2023-05-21T03:32:13;41.40;;;30.93;;
3757;SDS011;1894;51.038;13.692;2023-05-21T03:34:41;41.07;;;32.00;;
3757;SDS011;1894;51.038;13.692;2023-05-21T03:37:08;43.10;;;31.33;;
3757;SDS011;1894;51.038;13.692;2023-05-21T03:39:36;44.53;;;32.07;;
3757;SDS011;1894;51.038;13.692;2023-05-21T03:42:04;40.50;;;30.47;;
3757;SDS011;1894;51.038;13.692;2023-05-21T03:44:43;44.13;;;31.47;;
3757;SDS011;1894;51.038;13.692;2023-05-21T03:47:28;43.90;;;31.83;;
3757;SDS011;1894;51.038;13.692;2023-05-21T03:49:56;42.40;;;30.27;;
3757;SDS011;1894;51.038;13.692;2023-05-21T03:52:23;39.50;;;30.00;;
3757;SDS011;1894;51.038;13.692;2023-05-21T03:54:50;41.20;;;31.47;;
3757;SDS011;1894;51.038;13.692;2023-05-21T03:57:17;43.83;;;31.50;;
3757;SDS011;1894;51.038;13.692;2023-05-21T03:59:46;39.43;;;30.83;;
3757;SDS011;1894;51.038;13.692;2023-05-21T04:02:13;40.77;;;31.13;;
3757;SDS011;1894;51.038;13.692;2023-05-21T04:04:40;41.50;;;30.20;;
3757;SDS011;1894;51.038;13.692;2023-05-21T04:07:09;37.07;;;29.93;;
3757;SDS011;1894;51.038;13.692;2023-05-21T04:09:40;39.53;;;28.53;;
3757;SDS011;1894;51.038;13.692;2023-05-21T04:12:07;39.00;;;29.50;;
3757;SDS011;1894;51.038;13.692;2023-05-21T04:14:35;34.70;;;27.40;;
3757;SDS011;1894;51.038;13.692;2023-05-21T04:17:03;38.30;;;27.77;;
3757;SDS011;1894;51.038;13.692;2023-05-21T04:19:31;37.10;;;27.67;;
3757;SDS011;1894;51.038;13.692;2023-05-21T04:22:02;38.10;;;26.87;;
3757;SDS011;1894;51.038;13.692;2023-05-21T04:24:30;32.43;;;27.07;;
3757;SDS011;1894;51.038;13.692;2023-05-21T04:27:13;37.80;;;27.47;;
3757;SDS011;1894;51.038;13.692;2023-05-21T04:29:42;36.67;;;28.40;;
3757;SDS011;1894;51.038;13.692;2023-05-21T04:32:10;33.10;;;27.00;;
3757;SDS011;1894;51.038;13.692;2023-05-21T04:34:40;36.87;;;28.33;;
3757;SDS011;1894;51.038;13.692;2023-05-21T04:37:08;34.93;;;27.53;;
3757;SDS011;1894;51.038;13.692;2023-05-21T04:39:35;36.00;;;30.20;;
3757;SDS011;1894;51.038;13.692;2023-05-21T04:42:03;33.00;;;27.30;;
3757;SDS011;1894;51.038;13.692;2023-05-21T04:44:30;39.87;;;26.43;;
3757;SDS011;1894;51.038;13.692;2023-05-21T04:46:59;30.67;;;26.77;;
3757;SDS011;1894;51.038;13.692;2023-05-21T04:49:27;34.97;;;27.87;;
3757;SDS011;1894;51.038;13.692;2023-05-21T04:51:55;33.47;;;25.57;;
3757;SDS011;1894;51.038;13.692;2023-05-21T04:54:22;33.97;;;27.13;;
3757;SDS011;1894;51.038;13.692;2023-05-21T04:56:49;32.00;;;26.70;;
3757;SDS011;1894;51.038;13.692;2023-05-21T04:59:17;34.27;;;27.47;;
3757;SDS011;1894;51.038;13.692;2023-05-21T05:01:47;32.20;;;26.60;;
3757;SDS011;1894;51.038;13.692;2023-05-21T05:04:14;33.10;;;27.33;;
3757;SDS011;1894;51.038;13.692;2023-05-21T05:06:41;32.77;;;25.87;;
3757;SDS011;1894;51.038;13.692;2023-05-21T05:09:09;31.40;;;25.30;;
3757;SDS011;1894;51.038;13.692;2023-05-21T05:11:37;27.93;;;24.30;;
3757;SDS011;1894;51.038;13.692;2023-05-21T05:14:04;35.17;;;26.40;;
3757;SDS011;1894;51.038;13.692;2023-05-21T05:16:32;31.63;;;25.83;;
3757;SDS011;1894;51.038;13.692;2023-05-21T05:19:01;30.97;;;25.30;;
3757;SDS011;1894;51.038;13.692;2023-05-21T05:21:28;27.33;;;24.40;;
3757;SDS011;1894;51.038;13.692;2023-05-21T05:23:57;25.90;;;20.77;;
3757;SDS011;1894;51.038;13.692;2023-05-21T05:26:27;29.67;;;24.40;;
3757;SDS011;1894;51.038;13.692;2023-05-21T05:28:55;30.80;;;23.10;;
3757;SDS011;1894;51.038;13.692;2023-05-21T05:31:22;26.80;;;23.80;;
3757;SDS011;1894;51.038;13.692;2023-05-21T05:33:51;31.00;;;24.70;;
3757;SDS011;1894;51.038;13.692;2023-05-21T05:36:18;25.87;;;22.03;;
3757;SDS011;1894;51.038;13.692;2023-05-21T05:38:45;28.83;;;22.00;;
3757;SDS011;1894;51.038;13.692;2023-05-21T05:41:12;28.77;;;24.20;;
3757;SDS011;1894;51.038;13.692;2023-05-21T05:43:39;25.37;;;22.40;;
3757;SDS011;1894;51.038;13.692;2023-05-21T05:46:07;26.50;;;22.10;;
3757;SDS011;1894;51.038;13.692;2023-05-21T05:48:35;24.00;;;19.27;;
3757;SDS011;1894;51.038;13.692;2023-05-21T05:51:02;28.00;;;21.97;;
3757;SDS011;1894;51.038;13.692;2023-05-21T05:53:30;23.33;;;20.77;;
3757;SDS011;1894;51.038;13.692;2023-05-21T05:55:57;22.57;;;20.17;;
3757;SDS011;1894;51.038;13.692;2023-05-21T05:58:28;23.13;;;20.17;;
3757;SDS011;1894;51.038;13.692;2023-05-21T06:01:05;22.20;;;19.67;;
3757;SDS011;1894;51.038;13.692;2023-05-21T06:03:32;25.00;;;20.60;;
3757;SDS011;1894;51.038;13.692;2023-05-21T06:06:07;24.60;;;20.77;;
3757;SDS011;1894;51.038;13.692;2023-05-21T06:08:34;20.83;;;18.73;;
3757;SDS011;1894;51.038;13.692;2023-05-21T06:11:03;23.73;;;19.77;;
3757;SDS011;1894;51.038;13.692;2023-05-21T06:13:30;20.77;;;18.60;;
3757;SDS011;1894;51.038;13.692;2023-05-21T06:15:57;25.97;;;21.67;;
3757;SDS011;1894;51.038;13.692;2023-05-21T06:18:25;21.77;;;19.57;;
3757;SDS011;1894;51.038;13.692;2023-05-21T06:20:52;23.77;;;21.20;;
3757;SDS011;1894;51.038;13.692;2023-05-21T06:23:21;23.77;;;20.20;;
3757;SDS011;1894;51.038;13.692;2023-05-21T06:25:48;22.17;;;19.40;;
3757;SDS011;1894;51.038;13.692;2023-05-21T06:28:17;22.20;;;19.80;;
3757;SDS011;1894;51.038;13.692;2023-05-21T06:30:44;22.60;;;20.30;;
3757;SDS011;1894;51.038;13.692;2023-05-21T06:33:12;25.93;;;19.40;;
3757;SDS011;1894;51.038;13.692;2023-05-21T06:35:39;21.83;;;17.63;;
3757;SDS011;1894;51.038;13.692;2023-05-21T06:38:08;22.13;;;18.47;;
3757;SDS011;1894;51.038;13.692;2023-05-21T06:40:35;21.13;;;18.47;;
3757;SDS011;1894;51.038;13.692;2023-05-21T06:43:03;22.17;;;19.67;;
3757;SDS011;1894;51.038;13.692;2023-05-21T06:46:08;22.10;;;18.87;;
3757;SDS011;1894;51.038;13.692;2023-05-21T06:48:38;20.63;;;17.80;;
3757;SDS011;1894;51.038;13.692;2023-05-21T06:51:05;23.03;;;17.63;;
3757;SDS011;1894;51.038;13.692;2023-05-21T06:53:33;23.30;;;19.47;;
3757;SDS011;1894;51.038;13.692;2023-05-21T06:56:00;23.47;;;19.33;;
3757;SDS011;1894;51.038;13.692;2023-05-21T06:58:41;21.10;;;18.53;;
3757;SDS011;1894;51.038;13.692;2023-05-21T07:01:08;22.23;;;19.10;;
3757;SDS011;1894;51.038;13.692;2023-05-21T07:03:37;20.77;;;18.50;;
3757;SDS011;1894;51.038;13.692;2023-05-21T07:06:04;25.07;;;18.93;;
3757;SDS011;1894;51.038;13.692;2023-05-21T07:08:32;22.27;;;19.63;;
3757;SDS011;1894;51.038;13.692;2023-05-21T07:11:00;20.73;;;18.63;;
3757;SDS011;1894;51.038;13.692;2023-05-21T07:13:28;21.93;;;19.73;;
3757;SDS011;1894;51.038;13.692;2023-05-21T07:15:56;21.23;;;18.80;;
3757;SDS011;1894;51.038;13.692;2023-05-21T07:18:24;21.90;;;19.60;;
3757;SDS011;1894;51.038;13.692;2023-05-21T07:20:51;19.67;;;17.67;;
3757;SDS011;1894;51.038;13.692;2023-05-21T07:23:19;22.40;;;19.97;;
3757;SDS011;1894;51.038;13.692;2023-05-21T07:25:46;20.17;;;18.17;;
3757;SDS011;1894;51.038;13.692;2023-05-21T07:28:13;29.23;;;17.97;;
3757;SDS011;1894;51.038;13.692;2023-05-21T07:30:41;22.27;;;19.87;;
3757;SDS011;1894;51.038;13.692;2023-05-21T07:33:12;22.03;;;19.73;;
3757;SDS011;1894;51.038;13.692;2023-05-21T07:35:40;25.33;;;17.70;;
3757;SDS011;1894;51.038;13.692;2023-05-21T07:38:07;21.60;;;18.83;;
3757;SDS011;1894;51.038;13.692;2023-05-21T07:40:34;22.27;;;17.90;;
3757;SDS011;1894;51.038;13.692;2023-05-21T07:43:02;25.73;;;19.93;;
3757;SDS011;1894;51.038;13.692;2023-05-21T07:45:32;20.90;;;17.10;;
3757;SDS011;1894;51.038;13.692;2023-05-21T07:47:59;22.00;;;19.70;;
3757;SDS011;1894;51.038;13.692;2023-05-21T07:50:30;24.30;;;17.80;;
3757;SDS011;1894;51.038;13.692;2023-05-21T07:52:57;19.90;;;17.70;;
3757;SDS011;1894;51.038;13.692;2023-05-21T07:55:24;18.10;;;16.20;;
3757;SDS011;1894;51.038;13.692;2023-05-21T07:57:51;23.33;;;18.37;;
3757;SDS011;1894;51.038;13.692;2023-05-21T08:00:24;19.63;;;17.53;;
3757;SDS011;1894;51.038;13.692;2023-05-21T08:02:55;21.90;;;19.50;;
3757;SDS011;1894;51.038;13.692;2023-05-21T08:05:23;20.83;;;18.30;;
3757;SDS011;1894;51.038;13.692;2023-05-21T08:07:51;19.83;;;17.80;;
3757;SDS011;1894;51.038;13.692;2023-05-21T08:10:19;28.13;;;18.43;;
3757;SDS011;1894;51.038;13.692;2023-05-21T08:12:48;20.77;;;18.57;;
3757;SDS011;1894;51.038;13.692;2023-05-21T08:15:16;20.63;;;18.37;;
3757;SDS011;1894;51.038;13.692;2023-05-21T08:17:44;19.87;;;16.67;;
3757;SDS011;1894;51.038;13.692;2023-05-21T08:20:11;23.17;;;17.63;;
3757;SDS011;1894;51.038;13.692;2023-05-21T08:22:42;23.00;;;18.13;;
3757;SDS011;1894;51.038;13.692;2023-05-21T08:25:10;19.50;;;17.40;;
3757;SDS011;1894;51.038;13.692;2023-05-21T08:27:37;19.03;;;16.67;;
3757;SDS011;1894;51.038;13.692;2023-05-21T08:30:04;20.57;;;18.30;;
3757;SDS011;1894;51.038;13.692;2023-05-21T08:32:33;22.13;;;18.20;;
3757;SDS011;1894;51.038;13.692;2023-05-21T08:35:00;23.17;;;16.43;;
3757;SDS011;1894;51.038;13.692;2023-05-21T08:37:44;22.13;;;16.80;;
3757;SDS011;1894;51.038;13.692;2023-05-21T08:40:17;20.83;;;18.17;;
3757;SDS011;1894;51.038;13.692;2023-05-21T08:42:46;20.90;;;15.30;;
3757;SDS011;1894;51.038;13.692;2023-05-21T08:45:24;21.60;;;17.30;;
3757;SDS011;1894;51.038;13.692;2023-05-21T08:47:56;22.87;;;17.23;;
3757;SDS011;1894;51.038;13.692;2023-05-21T08:50:27;18.73;;;16.73;;
3757;SDS011;1894;51.038;13.692;2023-05-21T08:52:58;17.70;;;15.80;;
3757;SDS011;1894;51.038;13.692;2023-05-21T08:55:30;19.23;;;17.20;;
3757;SDS011;1894;51.038;13.692;2023-05-21T08:57:59;17.90;;;16.00;;
3757;SDS011;1894;51.038;13.692;2023-05-21T09:00:26;19.63;;;17.63;;
3757;SDS011;1894;51.038;13.692;2023-05-21T09:02:54;16.73;;;15.03;;
3757;SDS011;1894;51.038;13.692;2023-05-21T09:05:23;17.73;;;15.93;;
3757;SDS011;1894;51.038;13.692;2023-05-21T09:10:49;19.10;;;15.97;;
3757;SDS011;1894;51.038;13.692;2023-05-21T09:13:21;19.27;;;15.80;;
3757;SDS011;1894;51.038;13.692;2023-05-21T09:15:50;23.80;;;16.73;;
3757;SDS011;1894;51.038;13.692;2023-05-21T09:18:20;19.07;;;14.57;;
3757;SDS011;1894;51.038;13.692;2023-05-21T09:21:21;17.57;;;15.70;;
3757;SDS011;1894;51.038;13.692;2023-05-21T09:23:58;23.10;;;20.57;;
3757;SDS011;1894;51.038;13.692;2023-05-21T09:26:27;16.73;;;15.13;;
3757;SDS011;1894;51.038;13.692;2023-05-21T09:28:59;18.93;;;16.37;;
3757;SDS011;1894;51.038;13.692;2023-05-21T09:31:27;17.10;;;15.30;;
3757;SDS011;1894;51.038;13.692;2023-05-21T09:33:55;15.77;;;13.90;;
3757;SDS011;1894;51.038;13.692;2023-05-21T09:36:24;15.13;;;13.60;;
3757;SDS011;1894;51.038;13.692;2023-05-21T09:38:52;14.87;;;13.33;;
3757;SDS011;1894;51.038;13.692;2023-05-21T09:41:19;16.80;;;15.20;;
3757;SDS011;1894;51.038;13.692;2023-05-21T09:44:02;20.23;;;13.83;;
3757;SDS011;1894;51.038;13.692;2023-05-21T09:46:39;18.30;;;13.73;;
3757;SDS011;1894;51.038;13.692;2023-05-21T09:49:23;15.73;;;13.80;;
3757;SDS011;1894;51.038;13.692;2023-05-21T09:51:58;17.13;;;13.87;;
3757;SDS011;1894;51.038;13.692;2023-05-21T09:54:32;15.07;;;12.93;;
3757;SDS011;1894;51.038;13.692;2023-05-21T09:57:00;16.30;;;14.80;;
3757;SDS011;1894;51.038;13.692;2023-05-21T09:59:35;16.70;;;14.70;;
3757;SDS011;1894;51.038;13.692;2023-05-21T10:02:14;17.17;;;15.10;;
3757;SDS011;1894;51.038;13.692;2023-05-21T10:04:46;15.73;;;14.23;;
3757;SDS011;1894;51.038;13.692;2023-05-21T10:07:22;15.63;;;14.20;;
3757;SDS011;1894;51.038;13.692;2023-05-21T10:09:53;19.13;;;14.93;;
3757;SDS011;1894;51.038;13.692;2023-05-21T10:12:22;15.63;;;13.20;;
3757;SDS011;1894;51.038;13.692;2023-05-21T10:14:53;16.40;;;13.87;;
3757;SDS011;1894;51.038;13.692;2023-05-21T10:17:29;17.63;;;14.00;;
3757;SDS011;1894;51.038;13.692;2023-05-21T10:19:56;15.07;;;13.57;;
3757;SDS011;1894;51.038;13.692;2023-05-21T10:22:26;13.63;;;12.33;;
3757;SDS011;1894;51.038;13.692;2023-05-21T10:24:54;14.13;;;12.83;;
3757;SDS011;1894;51.038;13.692;2023-05-21T10:27:23;13.87;;;12.57;;
3757;SDS011;1894;51.038;13.692;2023-05-21T10:29:50;15.57;;;12.80;;
3757;SDS011;1894;51.038;13.692;2023-05-21T10:32:19;14.07;;;12.30;;
3757;SDS011;1894;51.038;13.692;2023-05-21T10:34:48;15.33;;;13.10;;
3757;SDS011;1894;51.038;13.692;2023-05-21T10:37:22;17.13;;;14.37;;
3757;SDS011;1894;51.038;13.692;2023-05-21T10:39:52;12.40;;;11.20;;
3757;SDS011;1894;51.038;13.692;2023-05-21T10:59:50;14.30;;;12.87;;
3757;SDS011;1894;51.038;13.692;2023-05-21T11:02:18;14.80;;;12.20;;
3757;SDS011;1894;51.038;13.692;2023-05-21T11:04:47;11.07;;;10.17;;
3757;SDS011;1894;51.038;13.692;2023-05-21T11:07:48;13.70;;;10.90;;
3757;SDS011;1894;51.038;13.692;2023-05-21T11:10:39;12.90;;;10.80;;
3757;SDS011;1894;51.038;13.692;2023-05-21T11:13:07;14.57;;;11.30;;
3757;SDS011;1894;51.038;13.692;2023-05-21T11:21:14;12.23;;;8.87;;
3757;SDS011;1894;51.038;13.692;2023-05-21T11:26:22;10.43;;;9.53;;
3757;SDS011;1894;51.038;13.692;2023-05-21T11:29:05;11.40;;;10.40;;
3757;SDS011;1894;51.038;13.692;2023-05-21T11:31:34;10.00;;;9.03;;
3757;SDS011;1894;51.038;13.692;2023-05-21T11:36:48;13.80;;;9.67;;
3757;SDS011;1894;51.038;13.692;2023-05-21T11:39:16;10.23;;;9.33;;
3757;SDS011;1894;51.038;13.692;2023-05-21T11:41:51;9.93;;;8.30;;
3757;SDS011;1894;51.038;13.692;2023-05-21T11:44:41;9.60;;;8.57;;
3757;SDS011;1894;51.038;13.692;2023-05-21T11:47:18;12.00;;;8.70;;
3757;SDS011;1894;51.038;13.692;2023-05-21T11:49:46;9.37;;;8.27;;
3757;SDS011;1894;51.038;13.692;2023-05-21T11:52:14;12.50;;;9.70;;
3757;SDS011;1894;51.038;13.692;2023-05-21T11:54:42;15.53;;;10.00;;
3757;SDS011;1894;51.038;13.692;2023-05-21T11:57:16;9.30;;;8.37;;
3757;SDS011;1894;51.038;13.692;2023-05-21T11:59:45;9.30;;;8.50;;
3757;SDS011;1894;51.038;13.692;2023-05-21T12:02:14;9.43;;;8.63;;
3757;SDS011;1894;51.038;13.692;2023-05-21T12:04:43;8.73;;;7.87;;
3757;SDS011;1894;51.038;13.692;2023-05-21T12:07:15;8.57;;;7.80;;
3757;SDS011;1894;51.038;13.692;2023-05-21T12:09:48;9.13;;;7.50;;
3757;SDS011;1894;51.038;13.692;2023-05-21T12:12:17;7.77;;;7.17;;
3757;SDS011;1894;51.038;13.692;2023-05-21T12:14:47;7.00;;;6.40;;
3757;SDS011;1894;51.038;13.692;2023-05-21T12:17:17;7.90;;;7.40;;
3757;SDS011;1894;51.038;13.692;2023-05-21T12:19:47;7.73;;;7.10;;
3757;SDS011;1894;51.038;13.692;2023-05-21T12:22:22;7.43;;;6.93;;
3757;SDS011;1894;51.038;13.692;2023-05-21T12:24:51;7.30;;;6.80;;
3757;SDS011;1894;51.038;13.692;2023-05-21T12:27:20;7.60;;;6.90;;
3757;SDS011;1894;51.038;13.692;2023-05-21T12:29:49;9.70;;;8.90;;
3757;SDS011;1894;51.038;13.692;2023-05-21T12:32:18;9.00;;;8.10;;
3757;SDS011;1894;51.038;13.692;2023-05-21T12:34:48;10.87;;;9.87;;
3757;SDS011;1894;51.038;13.692;2023-05-21T12:39:49;10.30;;;9.50;;
3757;SDS011;1894;51.038;13.692;2023-05-21T12:42:24;10.70;;;9.77;;
3757;SDS011;1894;51.038;13.692;2023-05-21T12:44:56;11.03;;;10.10;;
3757;SDS011;1894;51.038;13.692;2023-05-21T12:47:24;11.00;;;10.10;;
3757;SDS011;1894;51.038;13.692;2023-05-21T12:49:53;12.00;;;10.30;;
3757;SDS011;1894;51.038;13.692;2023-05-21T12:52:27;12.60;;;11.33;;
3757;SDS011;1894;51.038;13.692;2023-05-21T12:54:54;10.70;;;9.80;;
3757;SDS011;1894;51.038;13.692;2023-05-21T12:57:26;12.73;;;11.40;;
3757;SDS011;1894;51.038;13.692;2023-05-21T13:00:02;12.50;;;9.60;;
3757;SDS011;1894;51.038;13.692;2023-05-21T13:02:39;11.57;;;9.23;;
3757;SDS011;1894;51.038;13.692;2023-05-21T13:05:14;11.27;;;10.00;;
3757;SDS011;1894;51.038;13.692;2023-05-21T13:07:44;9.67;;;8.70;;
3757;SDS011;1894;51.038;13.692;2023-05-21T13:10:13;9.47;;;8.67;;
3757;SDS011;1894;51.038;13.692;2023-05-21T13:12:44;8.57;;;7.83;;
3757;SDS011;1894;51.038;13.692;2023-05-21T13:15:12;8.70;;;8.10;;
3757;SDS011;1894;51.038;13.692;2023-05-21T13:17:40;9.63;;;8.73;;
3757;SDS011;1894;51.038;13.692;2023-05-21T13:20:08;9.90;;;9.00;;
3757;SDS011;1894;51.038;13.692;2023-05-21T13:22:41;10.13;;;9.23;;
3757;SDS011;1894;51.038;13.692;2023-05-21T13:25:13;9.60;;;8.90;;
3757;SDS011;1894;51.038;13.692;2023-05-21T13:27:43;11.10;;;9.63;;
3757;SDS011;1894;51.038;13.692;2023-05-21T13:30:11;10.33;;;9.50;;
3757;SDS011;1894;51.038;13.692;2023-05-21T13:32:39;11.90;;;10.70;;
3757;SDS011;1894;51.038;13.692;2023-05-21T13:35:08;12.07;;;9.20;;
3757;SDS011;1894;51.038;13.692;2023-05-21T13:37:37;10.60;;;9.70;;
3757;SDS011;1894;51.038;13.692;2023-05-21T13:40:06;11.17;;;10.07;;
3757;SDS011;1894;51.038;13.692;2023-05-21T13:42:41;12.17;;;9.53;;
3757;SDS011;1894;51.038;13.692;2023-05-21T13:45:12;10.57;;;9.60;;
3757;SDS011;1894;51.038;13.692;2023-05-21T13:47:41;11.00;;;10.03;;
3757;SDS011;1894;51.038;13.692;2023-05-21T13:50:09;11.83;;;9.10;;
3757;SDS011;1894;51.038;13.692;2023-05-21T13:52:37;11.63;;;10.60;;
3757;SDS011;1894;51.038;13.692;2023-05-21T13:55:05;11.40;;;10.43;;
3757;SDS011;1894;51.038;13.692;2023-05-21T13:57:33;10.07;;;8.67;;
3757;SDS011;1894;51.038;13.692;2023-05-21T14:00:01;13.53;;;9.93;;
3757;SDS011;1894;51.038;13.692;2023-05-21T14:02:32;10.37;;;9.57;;
3757;SDS011;1894;51.038;13.692;2023-05-21T14:05:01;17.43;;;10.03;;
3757;SDS011;1894;51.038;13.692;2023-05-21T14:07:28;8.80;;;7.70;;
3757;SDS011;1894;51.038;13.692;2023-05-21T14:09:56;9.20;;;8.27;;
3757;SDS011;1894;51.038;13.692;2023-05-21T14:12:23;9.03;;;8.20;;
3757;SDS011;1894;51.038;13.692;2023-05-21T14:14:51;7.97;;;7.37;;
3757;SDS011;1894;51.038;13.692;2023-05-21T14:17:19;7.93;;;7.23;;
3757;SDS011;1894;51.038;13.692;2023-05-21T14:19:47;7.13;;;6.47;;
3757;SDS011;1894;51.038;13.692;2023-05-21T14:22:14;7.03;;;6.43;;
3757;SDS011;1894;51.038;13.692;2023-05-21T14:24:41;6.13;;;5.73;;
3757;SDS011;1894;51.038;13.692;2023-05-21T14:27:09;6.90;;;6.30;;
3757;SDS011;1894;51.038;13.692;2023-05-21T14:29:39;6.63;;;5.93;;
3757;SDS011;1894;51.038;13.692;2023-05-21T14:32:07;6.90;;;6.40;;
3757;SDS011;1894;51.038;13.692;2023-05-21T14:34:35;5.90;;;5.40;;
3757;SDS011;1894;51.038;13.692;2023-05-21T14:37:04;7.70;;;7.00;;
3757;SDS011;1894;51.038;13.692;2023-05-21T14:39:31;6.83;;;6.43;;
3757;SDS011;1894;51.038;13.692;2023-05-21T14:41:58;7.50;;;6.10;;
3757;SDS011;1894;51.038;13.692;2023-05-21T14:44:29;7.70;;;7.00;;
3757;SDS011;1894;51.038;13.692;2023-05-21T14:46:56;5.97;;;5.47;;
3757;SDS011;1894;51.038;13.692;2023-05-21T14:49:26;7.20;;;6.23;;
3757;SDS011;1894;51.038;13.692;2023-05-21T14:51:54;7.43;;;6.07;;
3757;SDS011;1894;51.038;13.692;2023-05-21T14:54:21;5.67;;;5.27;;
3757;SDS011;1894;51.038;13.692;2023-05-21T14:56:48;7.17;;;6.47;;
3757;SDS011;1894;51.038;13.692;2023-05-21T14:59:15;6.37;;;5.70;;
3757;SDS011;1894;51.038;13.692;2023-05-21T15:01:43;6.03;;;5.53;;
3757;SDS011;1894;51.038;13.692;2023-05-21T15:04:10;6.60;;;6.00;;
3757;SDS011;1894;51.038;13.692;2023-05-21T15:06:38;5.80;;;5.30;;
3757;SDS011;1894;51.038;13.692;2023-05-21T15:09:05;8.23;;;6.10;;
3757;SDS011;1894;51.038;13.692;2023-05-21T15:11:32;5.60;;;5.10;;
3757;SDS011;1894;51.038;13.692;2023-05-21T15:14:00;7.37;;;6.67;;
3757;SDS011;1894;51.038;13.692;2023-05-21T15:16:27;6.83;;;6.13;;
3757;SDS011;1894;51.038;13.692;2023-05-21T15:18:54;6.77;;;6.17;;
3757;SDS011;1894;51.038;13.692;2023-05-21T15:21:22;7.90;;;7.20;;
3757;SDS011;1894;51.038;13.692;2023-05-21T15:23:52;7.57;;;6.83;;
3757;SDS011;1894;51.038;13.692;2023-05-21T15:26:19;6.67;;;6.07;;
3757;SDS011;1894;51.038;13.692;2023-05-21T15:28:46;6.23;;;5.63;;
3757;SDS011;1894;51.038;13.692;2023-05-21T15:31:14;11.40;;;7.10;;
3757;SDS011;1894;51.038;13.692;2023-05-21T15:33:41;6.90;;;6.40;;